sensor_id;sensor_type;location;lat;lon;timestamp;P1;durP1;ratioP1;P2;durP2;ratioP2
14021;SDS011;7086;48.116;11.580;2022-10-17T00:09:50;2.33;;;1.83;;
14021;SDS011;7086;48.116;11.580;2022-10-17T00:21:10;4.70;;;1.75;;
14021;SDS011;7086;48.116;11.580;2022-10-17T00:24:22;3.13;;;2.03;;
14021;SDS011;7086;48.116;11.580;2022-10-17T00:30:13;2.42;;;2.10;;
14021;SDS011;7086;48.116;11.580;2022-10-17T00:33:28;2.30;;;2.10;;
14021;SDS011;7086;48.116;11.580;2022-10-17T00:36:56;1.90;;;1.80;;
14021;SDS011;7086;48.116;11.580;2022-10-17T00:44:59;2.03;;;1.92;;
14021;SDS011;7086;48.116;11.580;2022-10-17T00:47:57;2.13;;;1.83;;
14021;SDS011;7086;48.116;11.580;2022-10-17T00:51:15;2.17;;;1.98;;
14021;SDS011;7086;48.116;11.580;2022-10-17T00:54:51;2.20;;;2.00;;
14021;SDS011;7086;48.116;11.580;2022-10-17T00:58:21;2.25;;;2.03;;
14021;SDS011;7086;48.116;11.580;2022-10-17T01:01:45;1.70;;;1.60;;
14021;SDS011;7086;48.116;11.580;2022-10-17T01:05:16;1.92;;;1.83;;
14021;SDS011;7086;48.116;11.580;2022-10-17T01:09:09;4.05;;;1.88;;
14021;SDS011;7086;48.116;11.580;2022-10-17T01:16:21;6.47;;;2.22;;
14021;SDS011;7086;48.116;11.580;2022-10-17T01:19:33;4.90;;;2.42;;
14021;SDS011;7086;48.116;11.580;2022-10-17T01:23:09;2.45;;;2.25;;
14021;SDS011;7086;48.116;11.580;2022-10-17T01:26:51;2.35;;;2.20;;
14021;SDS011;7086;48.116;11.580;2022-10-17T01:33:56;2.55;;;2.38;;
14021;SDS011;7086;48.116;11.580;2022-10-17T01:36:52;5.75;;;2.03;;
14021;SDS011;7086;48.116;11.580;2022-10-17T01:39:43;6.07;;;1.75;;
14021;SDS011;7086;48.116;11.580;2022-10-17T01:42:54;2.38;;;1.80;;
14021;SDS011;7086;48.116;11.580;2022-10-17T01:52:49;1.98;;;1.40;;
14021;SDS011;7086;48.116;11.580;2022-10-17T01:55:42;1.52;;;1.30;;
14021;SDS011;7086;48.116;11.580;2022-10-17T01:58:40;2.15;;;1.48;;
14021;SDS011;7086;48.116;11.580;2022-10-17T02:01:24;1.40;;;1.23;;
14021;SDS011;7086;48.116;11.580;2022-10-17T02:04:11;4.35;;;1.60;;
14021;SDS011;7086;48.116;11.580;2022-10-17T02:10:37;2.28;;;1.50;;
14021;SDS011;7086;48.116;11.580;2022-10-17T02:20:01;1.20;;;1.20;;
14021;SDS011;7086;48.116;11.580;2022-10-17T02:25:50;1.70;;;1.60;;
14021;SDS011;7086;48.116;11.580;2022-10-17T02:29:00;2.42;;;1.42;;
14021;SDS011;7086;48.116;11.580;2022-10-17T02:31:54;2.72;;;1.60;;
14021;SDS011;7086;48.116;11.580;2022-10-17T02:34:35;2.38;;;1.75;;
14021;SDS011;7086;48.116;11.580;2022-10-17T02:37:21;2.78;;;1.60;;
14021;SDS011;7086;48.116;11.580;2022-10-17T02:43:13;4.13;;;2.40;;
14021;SDS011;7086;48.116;11.580;2022-10-17T02:45:54;2.67;;;1.70;;
14021;SDS011;7086;48.116;11.580;2022-10-17T02:48:33;2.20;;;2.00;;
14021;SDS011;7086;48.116;11.580;2022-10-17T02:54:29;3.38;;;2.00;;
14021;SDS011;7086;48.116;11.580;2022-10-17T02:57:15;1.83;;;1.73;;
14021;SDS011;7086;48.116;11.580;2022-10-17T03:02:52;1.83;;;1.73;;
14021;SDS011;7086;48.116;11.580;2022-10-17T03:05:21;3.30;;;1.73;;
14021;SDS011;7086;48.116;11.580;2022-10-17T03:07:51;1.77;;;1.65;;
14021;SDS011;7086;48.116;11.580;2022-10-17T03:10:20;1.60;;;1.50;;
14021;SDS011;7086;48.116;11.580;2022-10-17T03:12:50;1.65;;;1.55;;
14021;SDS011;7086;48.116;11.580;2022-10-17T03:15:21;2.40;;;1.48;;
14021;SDS011;7086;48.116;11.580;2022-10-17T03:17:49;1.83;;;1.73;;
14021;SDS011;7086;48.116;11.580;2022-10-17T03:20:17;1.98;;;1.25;;
14021;SDS011;7086;48.116;11.580;2022-10-17T03:22:47;1.63;;;1.38;;
14021;SDS011;7086;48.116;11.580;2022-10-17T03:25:17;2.20;;;1.70;;
14021;SDS011;7086;48.116;11.580;2022-10-17T03:27:45;1.88;;;1.42;;
14021;SDS011;7086;48.116;11.580;2022-10-17T03:30:15;1.55;;;1.45;;
14021;SDS011;7086;48.116;11.580;2022-10-17T03:32:44;1.90;;;1.60;;
14021;SDS011;7086;48.116;11.580;2022-10-17T03:35:12;2.45;;;1.85;;
14021;SDS011;7086;48.116;11.580;2022-10-17T03:37:40;1.80;;;1.70;;
14021;SDS011;7086;48.116;11.580;2022-10-17T03:40:08;5.22;;;1.80;;
14021;SDS011;7086;48.116;11.580;2022-10-17T03:42:36;4.15;;;1.70;;
14021;SDS011;7086;48.116;11.580;2022-10-17T03:45:07;3.78;;;2.33;;
14021;SDS011;7086;48.116;11.580;2022-10-17T03:47:37;2.58;;;1.60;;
14021;SDS011;7086;48.116;11.580;2022-10-17T03:50:05;1.70;;;1.60;;
14021;SDS011;7086;48.116;11.580;2022-10-17T03:52:33;1.40;;;1.30;;
14021;SDS011;7086;48.116;11.580;2022-10-17T03:55:04;2.88;;;2.67;;
14021;SDS011;7086;48.116;11.580;2022-10-17T03:57:33;3.58;;;2.17;;
14021;SDS011;7086;48.116;11.580;2022-10-17T04:00:24;2.85;;;2.03;;
14021;SDS011;7086;48.116;11.580;2022-10-17T04:18:43;2.65;;;1.98;;
14021;SDS011;7086;48.116;11.580;2022-10-17T04:46:28;2.00;;;1.90;;
14021;SDS011;7086;48.116;11.580;2022-10-17T04:49:15;2.20;;;2.00;;
14021;SDS011;7086;48.116;11.580;2022-10-17T04:55:24;2.33;;;2.20;;
14021;SDS011;7086;48.116;11.580;2022-10-17T06:19:38;3.30;;;2.22;;
14021;SDS011;7086;48.116;11.580;2022-10-17T06:22:53;2.45;;;2.25;;
14021;SDS011;7086;48.116;11.580;2022-10-17T08:47:18;1.30;;;1.30;;
14021;SDS011;7086;48.116;11.580;2022-10-17T08:50:26;2.03;;;1.80;;
14021;SDS011;7086;48.116;11.580;2022-10-17T08:53:50;2.20;;;2.00;;
14021;SDS011;7086;48.116;11.580;2022-10-17T08:57:20;2.65;;;1.50;;
14021;SDS011;7086;48.116;11.580;2022-10-17T09:26:59;2.05;;;1.85;;
14021;SDS011;7086;48.116;11.580;2022-10-17T09:34:31;1.33;;;1.23;;
14021;SDS011;7086;48.116;11.580;2022-10-17T13:41:28;2.58;;;1.00;;
14021;SDS011;7086;48.116;11.580;2022-10-17T13:44:06;1.20;;;1.20;;
14021;SDS011;7086;48.116;11.580;2022-10-17T13:46:57;1.10;;;1.10;;
14021;SDS011;7086;48.116;11.580;2022-10-17T13:49:47;2.83;;;1.73;;
14021;SDS011;7086;48.116;11.580;2022-10-17T13:52:24;2.53;;;2.38;;
14021;SDS011;7086;48.116;11.580;2022-10-17T13:55:12;5.18;;;4.30;;
14021;SDS011;7086;48.116;11.580;2022-10-17T13:57:51;3.67;;;3.38;;
14021;SDS011;7086;48.116;11.580;2022-10-17T14:00:54;4.75;;;4.30;;
14021;SDS011;7086;48.116;11.580;2022-10-17T14:03:36;4.88;;;4.13;;
14021;SDS011;7086;48.116;11.580;2022-10-17T14:06:19;3.47;;;3.22;;
14021;SDS011;7086;48.116;11.580;2022-10-17T14:09:27;13.80;;;11.07;;
14021;SDS011;7086;48.116;11.580;2022-10-17T14:12:00;10.02;;;9.13;;
14021;SDS011;7086;48.116;11.580;2022-10-17T14:14:50;7.63;;;7.03;;
14021;SDS011;7086;48.116;11.580;2022-10-17T14:17:22;5.28;;;4.68;;
14021;SDS011;7086;48.116;11.580;2022-10-17T14:19:55;5.93;;;5.45;;
14021;SDS011;7086;48.116;11.580;2022-10-17T14:22:33;7.32;;;6.28;;
14021;SDS011;7086;48.116;11.580;2022-10-17T14:28:01;4.47;;;4.15;;
14021;SDS011;7086;48.116;11.580;2022-10-17T14:30:48;3.72;;;3.42;;
14021;SDS011;7086;48.116;11.580;2022-10-17T14:33:22;2.72;;;2.47;;
14021;SDS011;7086;48.116;11.580;2022-10-17T14:36:00;2.85;;;2.65;;
14021;SDS011;7086;48.116;11.580;2022-10-17T14:38:30;3.47;;;3.28;;
14021;SDS011;7086;48.116;11.580;2022-10-17T14:41:01;3.00;;;2.80;;
14021;SDS011;7086;48.116;11.580;2022-10-17T14:43:34;3.08;;;2.80;;
14021;SDS011;7086;48.116;11.580;2022-10-17T14:49:18;2.20;;;2.00;;
14021;SDS011;7086;48.116;11.580;2022-10-17T14:52:20;2.03;;;1.92;;
14021;SDS011;7086;48.116;11.580;2022-10-17T14:55:16;9.25;;;8.45;;
14021;SDS011;7086;48.116;11.580;2022-10-17T14:58:16;3.17;;;3.00;;
14021;SDS011;7086;48.116;11.580;2022-10-17T15:00:52;4.22;;;3.92;;
14021;SDS011;7086;48.116;11.580;2022-10-17T15:06:16;5.57;;;5.13;;
14021;SDS011;7086;48.116;11.580;2022-10-17T15:08:53;8.20;;;7.40;;
14021;SDS011;7086;48.116;11.580;2022-10-17T15:11:23;5.00;;;4.60;;
14021;SDS011;7086;48.116;11.580;2022-10-17T15:14:08;3.42;;;3.13;;
14021;SDS011;7086;48.116;11.580;2022-10-17T15:16:47;5.90;;;5.15;;
14021;SDS011;7086;48.116;11.580;2022-10-17T15:22:54;2.97;;;2.45;;
14021;SDS011;7086;48.116;11.580;2022-10-17T15:25:40;2.20;;;2.10;;
14021;SDS011;7086;48.116;11.580;2022-10-17T15:28:17;2.50;;;2.40;;
14021;SDS011;7086;48.116;11.580;2022-10-17T15:30:45;3.72;;;3.42;;
14021;SDS011;7086;48.116;11.580;2022-10-17T15:33:36;3.22;;;2.92;;
14021;SDS011;7086;48.116;11.580;2022-10-17T15:39:16;3.67;;;3.47;;
14021;SDS011;7086;48.116;11.580;2022-10-17T15:41:46;3.97;;;3.58;;
14021;SDS011;7086;48.116;11.580;2022-10-17T15:44:25;3.67;;;3.35;;
14021;SDS011;7086;48.116;11.580;2022-10-17T15:47:05;4.18;;;3.78;;
14021;SDS011;7086;48.116;11.580;2022-10-17T15:49:53;2.58;;;2.38;;
14021;SDS011;7086;48.116;11.580;2022-10-17T15:52:26;2.95;;;2.35;;
14021;SDS011;7086;48.116;11.580;2022-10-17T15:55:14;5.10;;;1.83;;
14021;SDS011;7086;48.116;11.580;2022-10-17T15:58:10;2.45;;;2.33;;
14021;SDS011;7086;48.116;11.580;2022-10-17T16:00:56;2.00;;;1.90;;
14021;SDS011;7086;48.116;11.580;2022-10-17T16:03:41;2.00;;;1.90;;
14021;SDS011;7086;48.116;11.580;2022-10-17T16:06:36;5.18;;;1.90;;
14021;SDS011;7086;48.116;11.580;2022-10-17T16:09:38;5.88;;;5.25;;
14021;SDS011;7086;48.116;11.580;2022-10-17T16:12:10;3.45;;;3.15;;
14021;SDS011;7086;48.116;11.580;2022-10-17T16:15:15;5.20;;;4.70;;
14021;SDS011;7086;48.116;11.580;2022-10-17T16:18:01;3.92;;;3.60;;
14021;SDS011;7086;48.116;11.580;2022-10-17T16:21:01;7.07;;;3.00;;
14021;SDS011;7086;48.116;11.580;2022-10-17T16:24:06;7.22;;;6.63;;
14021;SDS011;7086;48.116;11.580;2022-10-17T16:30:23;5.97;;;4.00;;
14021;SDS011;7086;48.116;11.580;2022-10-17T16:33:29;4.80;;;2.97;;
14021;SDS011;7086;48.116;11.580;2022-10-17T16:36:18;6.50;;;3.08;;
14021;SDS011;7086;48.116;11.580;2022-10-17T16:38:49;3.60;;;3.30;;
14021;SDS011;7086;48.116;11.580;2022-10-17T16:41:20;4.18;;;3.10;;
14021;SDS011;7086;48.116;11.580;2022-10-17T16:44:58;5.20;;;4.13;;
14021;SDS011;7086;48.116;11.580;2022-10-17T17:16:33;6.03;;;4.30;;
14021;SDS011;7086;48.116;11.580;2022-10-17T17:19:10;6.35;;;4.60;;
14021;SDS011;7086;48.116;11.580;2022-10-17T17:21:56;7.28;;;5.50;;
14021;SDS011;7086;48.116;11.580;2022-10-17T17:27:18;8.02;;;6.57;;
14021;SDS011;7086;48.116;11.580;2022-10-17T17:30:00;6.68;;;6.03;;
14021;SDS011;7086;48.116;11.580;2022-10-17T17:38:02;35.97;;;33.25;;
14021;SDS011;7086;48.116;11.580;2022-10-17T17:40:33;33.25;;;30.55;;
14021;SDS011;7086;48.116;11.580;2022-10-17T17:43:15;24.23;;;22.08;;
14021;SDS011;7086;48.116;11.580;2022-10-17T17:45:43;16.95;;;15.52;;
14021;SDS011;7086;48.116;11.580;2022-10-17T17:50:50;10.05;;;7.97;;
14021;SDS011;7086;48.116;11.580;2022-10-17T17:53:20;9.52;;;7.60;;
14021;SDS011;7086;48.116;11.580;2022-10-17T17:56:00;9.38;;;6.75;;
14021;SDS011;7086;48.116;11.580;2022-10-17T17:58:33;8.40;;;6.22;;
14021;SDS011;7086;48.116;11.580;2022-10-17T18:01:07;7.10;;;6.43;;
14021;SDS011;7086;48.116;11.580;2022-10-17T18:03:47;8.32;;;6.03;;
14021;SDS011;7086;48.116;11.580;2022-10-17T18:06:32;10.45;;;6.43;;
14021;SDS011;7086;48.116;11.580;2022-10-17T18:09:05;10.23;;;6.07;;
14021;SDS011;7086;48.116;11.580;2022-10-17T18:11:41;8.00;;;6.63;;
14021;SDS011;7086;48.116;11.580;2022-10-17T18:14:32;7.85;;;5.82;;
14021;SDS011;7086;48.116;11.580;2022-10-17T18:17:03;8.18;;;6.68;;
14021;SDS011;7086;48.116;11.580;2022-10-17T18:19:32;10.48;;;6.45;;
14021;SDS011;7086;48.116;11.580;2022-10-17T18:22:04;12.40;;;7.18;;
14021;SDS011;7086;48.116;11.580;2022-10-17T18:24:51;11.20;;;6.95;;
14021;SDS011;7086;48.116;11.580;2022-10-17T18:27:19;9.57;;;6.40;;
14021;SDS011;7086;48.116;11.580;2022-10-17T18:30:02;9.77;;;8.13;;
14021;SDS011;7086;48.116;11.580;2022-10-17T18:32:45;7.22;;;6.43;;
14021;SDS011;7086;48.116;11.580;2022-10-17T18:35:27;8.75;;;5.45;;
14021;SDS011;7086;48.116;11.580;2022-10-17T18:38:14;7.53;;;5.32;;
14021;SDS011;7086;48.116;11.580;2022-10-17T18:40:44;8.43;;;5.75;;
14021;SDS011;7086;48.116;11.580;2022-10-17T18:51:39;13.32;;;6.97;;
14021;SDS011;7086;48.116;11.580;2022-10-17T18:57:52;11.65;;;5.80;;
14021;SDS011;7086;48.116;11.580;2022-10-17T19:00:22;9.63;;;6.45;;
14021;SDS011;7086;48.116;11.580;2022-10-17T19:03:05;7.57;;;6.18;;
14021;SDS011;7086;48.116;11.580;2022-10-17T19:05:38;8.13;;;5.63;;
14021;SDS011;7086;48.116;11.580;2022-10-17T19:11:22;6.20;;;5.60;;
14021;SDS011;7086;48.116;11.580;2022-10-17T19:20:39;7.32;;;4.75;;
14021;SDS011;7086;48.116;11.580;2022-10-17T19:23:07;5.38;;;4.88;;
14021;SDS011;7086;48.116;11.580;2022-10-17T20:16:18;6.25;;;4.10;;
14021;SDS011;7086;48.116;11.580;2022-10-17T20:19:08;4.30;;;3.90;;
14021;SDS011;7086;48.116;11.580;2022-10-17T20:21:39;5.85;;;4.22;;
14021;SDS011;7086;48.116;11.580;2022-10-17T20:24:21;7.38;;;4.40;;
14021;SDS011;7086;48.116;11.580;2022-10-17T20:26:51;6.63;;;3.97;;
14021;SDS011;7086;48.116;11.580;2022-10-17T20:32:01;4.50;;;3.97;;
14021;SDS011;7086;48.116;11.580;2022-10-17T20:34:43;8.40;;;4.78;;
14021;SDS011;7086;48.116;11.580;2022-10-17T20:37:27;6.25;;;4.10;;
14021;SDS011;7086;48.116;11.580;2022-10-17T20:40:25;7.60;;;4.40;;
14021;SDS011;7086;48.116;11.580;2022-10-17T20:43:07;4.88;;;3.47;;
14021;SDS011;7086;48.116;11.580;2022-10-17T20:45:37;3.88;;;3.53;;
14021;SDS011;7086;48.116;11.580;2022-10-17T21:46:15;4.35;;;2.53;;
14021;SDS011;7086;48.116;11.580;2022-10-17T21:49:48;4.97;;;3.10;;
14021;SDS011;7086;48.116;11.580;2022-10-17T21:52:20;2.90;;;2.70;;
14021;SDS011;7086;48.116;11.580;2022-10-17T21:54:52;4.32;;;2.78;;
14021;SDS011;7086;48.116;11.580;2022-10-17T21:57:21;5.28;;;2.42;;
14021;SDS011;7086;48.116;11.580;2022-10-17T21:59:50;2.70;;;2.38;;
14021;SDS011;7086;48.116;11.580;2022-10-17T22:02:32;4.15;;;2.72;;
14021;SDS011;7086;48.116;11.580;2022-10-17T22:05:04;2.47;;;2.28;;
14021;SDS011;7086;48.116;11.580;2022-10-17T22:07:34;2.92;;;2.63;;
14021;SDS011;7086;48.116;11.580;2022-10-17T22:10:16;2.45;;;2.35;;
14021;SDS011;7086;48.116;11.580;2022-10-17T22:12:43;3.83;;;2.60;;
14021;SDS011;7086;48.116;11.580;2022-10-17T22:15:22;2.92;;;2.33;;
14021;SDS011;7086;48.116;11.580;2022-10-17T22:17:50;2.80;;;2.53;;
14021;SDS011;7086;48.116;11.580;2022-10-17T22:20:21;2.97;;;2.67;;
14021;SDS011;7086;48.116;11.580;2022-10-17T22:22:49;3.63;;;2.30;;
14021;SDS011;7086;48.116;11.580;2022-10-17T22:25:17;3.30;;;2.30;;
14021;SDS011;7086;48.116;11.580;2022-10-17T22:27:46;5.00;;;3.22;;
14021;SDS011;7086;48.116;11.580;2022-10-17T22:30:17;3.38;;;3.17;;
14021;SDS011;7086;48.116;11.580;2022-10-17T22:32:45;3.58;;;2.92;;
14021;SDS011;7086;48.116;11.580;2022-10-17T22:35:18;5.00;;;2.53;;
14021;SDS011;7086;48.116;11.580;2022-10-17T22:37:47;3.10;;;2.83;;
14021;SDS011;7086;48.116;11.580;2022-10-17T22:40:16;3.80;;;2.80;;
14021;SDS011;7086;48.116;11.580;2022-10-17T22:42:48;7.32;;;2.45;;
14021;SDS011;7086;48.116;11.580;2022-10-17T22:45:19;3.08;;;2.78;;
14021;SDS011;7086;48.116;11.580;2022-10-17T22:47:47;2.80;;;2.60;;
14021;SDS011;7086;48.116;11.580;2022-10-17T22:50:28;2.80;;;2.33;;
14021;SDS011;7086;48.116;11.580;2022-10-17T22:52:58;3.10;;;2.22;;
14021;SDS011;7086;48.116;11.580;2022-10-17T22:55:29;2.95;;;2.75;;
14021;SDS011;7086;48.116;11.580;2022-10-17T22:58:02;2.47;;;2.33;;
14021;SDS011;7086;48.116;11.580;2022-10-17T23:00:34;2.97;;;2.78;;
14021;SDS011;7086;48.116;11.580;2022-10-17T23:03:05;4.53;;;2.42;;
14021;SDS011;7086;48.116;11.580;2022-10-17T23:05:34;2.90;;;2.70;;
14021;SDS011;7086;48.116;11.580;2022-10-17T23:08:03;3.15;;;2.95;;
14021;SDS011;7086;48.116;11.580;2022-10-17T23:10:31;2.65;;;2.45;;
14021;SDS011;7086;48.116;11.580;2022-10-17T23:12:59;3.83;;;3.13;;
14021;SDS011;7086;48.116;11.580;2022-10-17T23:15:29;2.65;;;2.47;;
14021;SDS011;7086;48.116;11.580;2022-10-17T23:17:59;2.75;;;2.55;;
14021;SDS011;7086;48.116;11.580;2022-10-17T23:20:28;2.55;;;2.35;;
14021;SDS011;7086;48.116;11.580;2022-10-17T23:23:02;5.43;;;2.63;;
14021;SDS011;7086;48.116;11.580;2022-10-17T23:25:31;2.67;;;2.47;;
14021;SDS011;7086;48.116;11.580;2022-10-17T23:28:00;2.20;;;2.10;;
14021;SDS011;7086;48.116;11.580;2022-10-17T23:30:30;4.38;;;2.47;;
14021;SDS011;7086;48.116;11.580;2022-10-17T23:33:05;2.55;;;2.28;;
14021;SDS011;7086;48.116;11.580;2022-10-17T23:35:44;2.67;;;2.47;;
14021;SDS011;7086;48.116;11.580;2022-10-17T23:38:12;3.80;;;2.50;;
14021;SDS011;7086;48.116;11.580;2022-10-17T23:40:40;7.55;;;2.88;;
14021;SDS011;7086;48.116;11.580;2022-10-17T23:43:07;2.55;;;2.35;;
14021;SDS011;7086;48.116;11.580;2022-10-17T23:45:37;2.97;;;2.40;;
14021;SDS011;7086;48.116;11.580;2022-10-17T23:48:05;2.45;;;2.33;;
14021;SDS011;7086;48.116;11.580;2022-10-17T23:50:36;2.55;;;2.35;;
14021;SDS011;7086;48.116;11.580;2022-10-17T23:53:03;2.63;;;2.40;;
14021;SDS011;7086;48.116;11.580;2022-10-17T23:55:55;4.10;;;2.53;;
14021;SDS011;7086;48.116;11.580;2022-10-17T23:58:23;4.22;;;2.53;;
